createdAt,value
2023-05-19T00:00:34.596Z,40.79
2023-05-19T00:03:05.061Z,40.91
2023-05-19T00:05:34.433Z,40.84
2023-05-19T00:08:04.197Z,40.79
2023-05-19T00:10:33.360Z,40.91
2023-05-19T00:13:02.093Z,40.96
2023-05-19T00:15:30.577Z,40.84
2023-05-19T00:17:58.950Z,40.94
2023-05-19T00:20:31.089Z,40.84
2023-05-19T00:23:02.011Z,40.85
2023-05-19T00:25:29.989Z,40.89
2023-05-19T00:27:59.242Z,40.83
2023-05-19T00:30:27.352Z,40.81
2023-05-19T00:32:55.484Z,40.81
2023-05-19T00:35:26.246Z,40.98
2023-05-19T00:37:55.622Z,41.01
2023-05-19T00:40:25.368Z,40.76
2023-05-19T00:42:53.396Z,40.96
2023-05-19T00:45:21.321Z,40.76
2023-05-19T00:47:49.666Z,40.96
2023-05-19T00:50:18.096Z,40.98
2023-05-19T00:52:46.127Z,40.93
2023-05-19T00:55:15.669Z,40.92
2023-05-19T00:57:44.605Z,40.96
2023-05-19T01:00:14.184Z,40.88
2023-05-19T01:02:42.348Z,40.89
2023-05-19T01:05:14.176Z,40.92
2023-05-19T01:07:42.596Z,41.01
2023-05-19T01:10:11.299Z,40.82
2023-05-19T01:12:42.278Z,40.97
2023-05-19T01:15:11.289Z,40.90
2023-05-19T01:17:49.456Z,40.91
2023-05-19T01:20:23.219Z,41.05
2023-05-19T01:23:15.034Z,40.89
2023-05-19T01:26:16.128Z,41.00
2023-05-19T01:29:26.922Z,41.11
2023-05-19T01:32:00.451Z,40.99
2023-05-19T01:34:29.202Z,41.06
2023-05-19T01:36:59.006Z,41.04
2023-05-19T01:39:27.534Z,40.97
2023-05-19T01:41:56.259Z,40.89
2023-05-19T01:44:26.956Z,41.05
2023-05-19T01:46:59.912Z,41.06
2023-05-19T01:49:27.864Z,41.07
2023-05-19T01:51:55.815Z,40.95
2023-05-19T01:54:24.208Z,41.11
2023-05-19T01:57:04.596Z,41.19
2023-05-19T01:59:57.482Z,41.11
2023-05-19T02:02:32.324Z,40.98
2023-05-19T02:05:08.094Z,41.13
2023-05-19T02:07:45.520Z,41.07
2023-05-19T02:10:20.578Z,41.20
2023-05-19T02:12:54.432Z,41.14
2023-05-19T02:15:26.019Z,41.26
2023-05-19T02:17:56.835Z,41.08
2023-05-19T02:20:24.959Z,41.06
2023-05-19T02:22:53.013Z,41.27
2023-05-19T02:25:24.270Z,41.06
2023-05-19T02:27:52.259Z,41.22
2023-05-19T02:30:20.223Z,41.17
2023-05-19T02:32:48.233Z,41.07
2023-05-19T02:35:17.935Z,41.25
2023-05-19T02:37:48.234Z,41.17
2023-05-19T02:40:16.288Z,41.02
2023-05-19T02:42:44.283Z,41.21
2023-05-19T02:45:12.941Z,41.11
2023-05-19T02:47:41.607Z,41.13
2023-05-19T02:50:10.377Z,41.32
2023-05-19T02:52:39.699Z,41.23
2023-05-19T02:55:08.285Z,41.09
2023-05-19T02:57:36.480Z,41.25
2023-05-19T03:00:09.019Z,41.29
2023-05-19T03:02:37.043Z,41.31
2023-05-19T03:05:05.637Z,41.32
2023-05-19T03:07:33.746Z,41.25
2023-05-19T03:10:04.062Z,41.30
2023-05-19T03:12:32.520Z,41.12
2023-05-19T03:15:00.644Z,41.21
2023-05-19T03:17:33.666Z,41.33
2023-05-19T03:20:02.564Z,41.32
2023-05-19T03:22:33.057Z,41.32
2023-05-19T03:25:01.152Z,41.25
2023-05-19T03:27:30.498Z,41.11
2023-05-19T03:29:58.487Z,41.45
2023-05-19T03:32:26.657Z,41.39
2023-05-19T03:34:54.695Z,41.42
2023-05-19T03:37:22.749Z,41.50
2023-05-19T03:39:50.748Z,41.71
2023-05-19T03:42:18.783Z,42.02
2023-05-19T03:44:48.407Z,42.39
2023-05-19T03:47:16.436Z,42.48
2023-05-19T03:49:44.623Z,42.37
2023-05-19T03:52:12.690Z,42.41
2023-05-19T03:54:42.685Z,42.41
2023-05-19T03:57:11.220Z,42.64
2023-05-19T03:59:41.361Z,42.79
2023-05-19T04:02:10.887Z,42.77
2023-05-19T04:04:39.033Z,42.66
2023-05-19T04:07:07.438Z,42.82
2023-05-19T04:09:35.604Z,42.96
2023-05-19T04:12:04.015Z,42.77
2023-05-19T04:14:32.080Z,42.75
2023-05-19T04:17:00.312Z,42.91
2023-05-19T04:19:29.914Z,43.67
2023-05-19T04:21:58.120Z,43.64
2023-05-19T04:24:26.236Z,43.41
2023-05-19T04:26:54.462Z,43.36
2023-05-19T04:29:24.019Z,43.23
2023-05-19T04:31:52.760Z,43.42
2023-05-19T04:34:20.728Z,43.35
2023-05-19T04:36:53.566Z,43.44
2023-05-19T04:39:21.774Z,43.40
2023-05-19T04:41:49.744Z,43.25
2023-05-19T04:44:18.572Z,43.22
2023-05-19T04:46:46.709Z,43.27
2023-05-19T04:49:19.212Z,43.29
2023-05-19T04:51:50.395Z,43.27
2023-05-19T04:54:20.230Z,43.30
2023-05-19T04:56:48.191Z,43.27
2023-05-19T04:59:16.153Z,43.42
2023-05-19T05:01:47.151Z,43.34
2023-05-19T05:04:15.129Z,43.13
2023-05-19T05:06:47.860Z,43.06
2023-05-19T05:09:16.057Z,43.06
2023-05-19T05:11:46.201Z,42.97
2023-05-19T05:14:14.675Z,43.06
2023-05-19T05:16:43.731Z,42.89
2023-05-19T05:19:12.431Z,42.94
2023-05-19T05:21:41.501Z,42.75
2023-05-19T05:24:10.969Z,42.67
2023-05-19T05:26:39.521Z,42.74
2023-05-19T05:29:10.339Z,42.69
2023-05-19T05:31:38.324Z,42.69
2023-05-19T05:34:06.392Z,42.64
2023-05-19T05:36:35.059Z,43.04
2023-05-19T05:39:03.926Z,42.78
2023-05-19T05:41:35.254Z,42.71
2023-05-19T05:44:03.690Z,42.52
2023-05-19T05:46:33.524Z,42.62
2023-05-19T05:49:02.002Z,42.58
2023-05-19T05:51:32.864Z,42.51
2023-05-19T05:54:01.886Z,42.63
2023-05-19T05:56:30.288Z,42.35
2023-05-19T05:58:58.677Z,42.47
2023-05-19T06:01:26.686Z,42.81
2023-05-19T06:03:59.050Z,42.65
2023-05-19T06:06:27.005Z,42.56
2023-05-19T06:08:54.958Z,42.62
2023-05-19T06:11:23.030Z,42.74
2023-05-19T06:13:51.151Z,42.68
2023-05-19T06:16:19.247Z,42.81
2023-05-19T06:18:47.303Z,42.77
2023-05-19T06:21:19.170Z,42.95
2023-05-19T06:23:47.177Z,42.80
2023-05-19T06:26:15.422Z,42.90
2023-05-19T06:28:43.377Z,42.79
2023-05-19T06:31:11.426Z,42.78
2023-05-19T06:33:39.413Z,42.87
2023-05-19T06:36:08.514Z,42.90
2023-05-19T06:38:37.846Z,42.95
2023-05-19T06:41:06.156Z,42.82
2023-05-19T06:43:34.155Z,42.78
2023-05-19T06:46:02.214Z,42.74
2023-05-19T06:48:33.064Z,42.83
2023-05-19T06:51:01.056Z,42.71
2023-05-19T06:53:29.119Z,42.88
2023-05-19T06:55:59.851Z,42.88
2023-05-19T06:58:28.471Z,42.98
2023-05-19T07:00:56.893Z,43.02
2023-05-19T07:03:25.023Z,42.66
2023-05-19T07:05:53.191Z,42.87
2023-05-19T07:08:21.187Z,42.91
2023-05-19T07:10:52.167Z,42.81
2023-05-19T07:13:21.529Z,42.67
2023-05-19T07:15:49.893Z,42.83
2023-05-19T07:18:17.950Z,42.61
2023-05-19T07:20:46.184Z,42.56
2023-05-19T07:23:16.051Z,42.71
2023-05-19T07:25:45.338Z,42.68
2023-05-19T07:28:13.322Z,42.61
2023-05-19T07:30:42.814Z,42.68
2023-05-19T07:33:10.897Z,42.54
2023-05-19T07:35:38.998Z,42.61
2023-05-19T07:38:07.520Z,42.65
2023-05-19T07:40:35.570Z,42.75
2023-05-19T07:43:03.619Z,42.61
2023-05-19T07:45:31.648Z,42.53
2023-05-19T07:48:01.166Z,42.61
2023-05-19T07:50:29.469Z,42.53
2023-05-19T07:52:57.497Z,42.46
2023-05-19T07:55:26.381Z,42.57
2023-05-19T07:57:54.313Z,42.71
2023-05-19T08:00:22.669Z,42.51
2023-05-19T08:02:50.828Z,42.75
2023-05-19T08:05:23.509Z,42.69
2023-05-19T08:07:51.481Z,42.52
2023-05-19T08:10:19.581Z,42.51
2023-05-19T08:12:48.763Z,42.58
2023-05-19T08:15:16.900Z,42.77
2023-05-19T08:17:49.986Z,42.77
2023-05-19T08:20:18.068Z,42.92
2023-05-19T08:22:47.608Z,43.02
2023-05-19T08:25:15.627Z,43.03
2023-05-19T08:27:43.550Z,43.03
2023-05-19T08:30:12.553Z,43.00
2023-05-19T08:32:40.592Z,42.84
2023-05-19T08:35:09.718Z,42.84
2023-05-19T08:37:38.735Z,42.91
2023-05-19T08:40:12.187Z,43.06
2023-05-19T08:42:40.274Z,42.86
2023-05-19T08:45:09.302Z,43.21
2023-05-19T08:47:37.558Z,43.05
2023-05-19T08:50:09.977Z,43.23
2023-05-19T08:52:57.839Z,43.24
2023-05-19T08:55:37.805Z,43.15
2023-05-19T08:58:09.689Z,43.21
2023-05-19T09:00:38.185Z,43.36
2023-05-19T09:03:18.219Z,43.40
2023-05-19T09:05:53.850Z,43.48
2023-05-19T09:08:22.654Z,43.47
2023-05-19T09:10:52.043Z,43.49
2023-05-19T09:13:19.983Z,43.62
2023-05-19T09:15:51.476Z,43.70
2023-05-19T09:18:19.508Z,43.61
2023-05-19T09:20:47.747Z,43.73
2023-05-19T09:23:19.269Z,43.84
2023-05-19T09:25:52.771Z,43.72
2023-05-19T09:28:28.038Z,43.65
2023-05-19T09:31:07.789Z,43.81
2023-05-19T09:33:37.213Z,43.65
2023-05-19T09:36:08.228Z,43.77
2023-05-19T09:38:37.445Z,43.67
2023-05-19T09:41:09.990Z,43.80
2023-05-19T09:43:38.100Z,43.84
2023-05-19T09:46:07.246Z,43.79
2023-05-19T09:48:36.369Z,43.96
2023-05-19T09:51:05.395Z,43.90
2023-05-19T09:53:33.991Z,44.04
2023-05-19T09:56:04.181Z,44.01
2023-05-19T09:58:36.480Z,43.97
2023-05-19T10:01:05.936Z,43.92
2023-05-19T10:03:35.157Z,44.17
2023-05-19T10:06:05.609Z,44.07
2023-05-19T10:08:34.849Z,44.17
2023-05-19T10:11:03.158Z,44.35
2023-05-19T10:13:34.782Z,44.17
2023-05-19T10:16:03.320Z,44.25
2023-05-19T10:18:34.508Z,44.22
2023-05-19T10:21:03.905Z,44.21
2023-05-19T10:23:32.120Z,44.30
2023-05-19T10:26:06.698Z,44.20
2023-05-19T10:28:38.108Z,44.36
2023-05-19T10:31:11.054Z,44.22
2023-05-19T10:33:50.866Z,44.30
2023-05-19T10:36:35.473Z,44.20
2023-05-19T10:39:08.161Z,44.14
2023-05-19T10:41:43.953Z,43.34
2023-05-19T10:44:29.259Z,42.49
2023-05-19T10:46:57.476Z,42.28
2023-05-19T10:49:25.804Z,42.08
2023-05-19T10:51:57.143Z,41.76
2023-05-19T10:54:43.327Z,41.75
2023-05-19T10:57:16.709Z,41.58
2023-05-19T10:59:46.420Z,41.46
2023-05-19T11:02:39.238Z,41.12
2023-05-19T11:05:11.063Z,41.19
2023-05-19T11:07:42.696Z,41.18
2023-05-19T11:10:11.239Z,41.13
2023-05-19T11:12:43.825Z,41.23
2023-05-19T11:15:15.392Z,40.98
2023-05-19T11:17:48.446Z,40.92
2023-05-19T11:20:24.664Z,40.80
2023-05-19T11:23:09.649Z,40.67
2023-05-19T11:25:45.513Z,40.70
2023-05-19T11:28:14.369Z,41.04
2023-05-19T11:30:45.974Z,41.06
2023-05-19T11:33:14.906Z,40.44
2023-05-19T11:35:44.764Z,40.55
2023-05-19T11:38:15.443Z,40.58
2023-05-19T11:40:44.590Z,40.28
2023-05-19T11:43:12.638Z,40.18
2023-05-19T11:45:46.134Z,40.02
2023-05-19T11:48:15.986Z,39.77
2023-05-19T11:50:45.044Z,40.13
2023-05-19T11:53:16.554Z,39.73
2023-05-19T11:55:46.546Z,39.75
2023-05-19T11:58:15.200Z,39.90
2023-05-19T12:00:47.872Z,39.83
2023-05-19T12:03:17.348Z,39.92
2023-05-19T12:05:49.667Z,39.91
2023-05-19T12:08:18.745Z,39.67
2023-05-19T12:10:50.851Z,39.72
2023-05-19T12:13:18.990Z,39.60
2023-05-19T12:15:48.436Z,39.60
2023-05-19T12:18:16.450Z,39.75
2023-05-19T12:20:44.608Z,40.09
2023-05-19T12:23:13.553Z,39.95
2023-05-19T12:25:41.715Z,39.77
2023-05-19T12:28:09.746Z,39.50
2023-05-19T12:30:38.127Z,39.45
2023-05-19T12:33:09.732Z,39.31
2023-05-19T12:35:38.772Z,39.39
2023-05-19T12:38:07.780Z,39.53
2023-05-19T12:40:36.777Z,39.52
2023-05-19T12:43:05.587Z,39.61
2023-05-19T12:45:36.169Z,39.68
2023-05-19T12:48:06.074Z,39.73
2023-05-19T12:50:35.947Z,39.86
2023-05-19T12:53:04.134Z,39.67
2023-05-19T12:55:39.590Z,40.01
2023-05-19T12:58:09.081Z,39.99
2023-05-19T13:00:42.244Z,40.23
2023-05-19T13:03:16.672Z,40.20
2023-05-19T13:05:48.102Z,40.12
2023-05-19T13:08:18.231Z,40.29
2023-05-19T13:10:47.452Z,40.19
2023-05-19T13:13:15.710Z,40.24
2023-05-19T13:15:45.433Z,40.06
2023-05-19T13:18:15.508Z,40.17
2023-05-19T13:20:44.638Z,40.13
2023-05-19T13:23:15.202Z,40.13
2023-05-19T13:25:43.762Z,40.25
2023-05-19T13:28:12.225Z,39.92
2023-05-19T13:30:45.032Z,39.62
2023-05-19T13:33:13.314Z,39.88
2023-05-19T13:35:41.348Z,39.95
2023-05-19T13:38:10.917Z,39.97
2023-05-19T13:40:41.064Z,39.73
2023-05-19T13:43:09.960Z,39.91
2023-05-19T13:45:38.668Z,39.40
2023-05-19T13:48:11.010Z,39.71
2023-05-19T13:50:39.169Z,39.91
2023-05-19T13:53:07.232Z,39.98
2023-05-19T13:55:35.273Z,39.90
2023-05-19T13:58:04.682Z,38.96
2023-05-19T14:00:33.248Z,39.50
2023-05-19T14:03:01.767Z,39.67
2023-05-19T14:05:31.195Z,39.59
2023-05-19T14:08:01.092Z,39.60
2023-05-19T14:10:29.234Z,39.59
2023-05-19T14:15:37.837Z,39.80
2023-05-19T14:18:07.037Z,39.72
2023-05-19T14:20:38.171Z,39.64
2023-05-19T14:23:06.369Z,39.70
2023-05-19T14:25:34.423Z,39.97
2023-05-19T14:28:02.755Z,39.74
2023-05-19T14:30:35.291Z,39.48
2023-05-19T14:33:03.735Z,39.70
2023-05-19T14:35:31.781Z,39.54
2023-05-19T14:37:59.751Z,39.36
2023-05-19T14:40:27.811Z,39.65
2023-05-19T14:42:55.838Z,39.46
2023-05-19T14:45:23.801Z,40.00
2023-05-19T14:47:53.189Z,39.93
2023-05-19T14:50:21.476Z,40.11
2023-05-19T14:52:49.433Z,39.78
2023-05-19T14:55:17.638Z,39.69
2023-05-19T14:57:45.681Z,39.67
2023-05-19T15:00:14.831Z,39.49
2023-05-19T15:02:42.948Z,39.62
2023-05-19T15:05:12.718Z,39.71
2023-05-19T15:07:40.794Z,39.55
2023-05-19T15:10:12.176Z,39.79
2023-05-19T15:12:40.100Z,39.32
2023-05-19T15:15:09.389Z,39.81
2023-05-19T15:17:37.468Z,39.29
2023-05-19T15:20:06.371Z,38.94
2023-05-19T15:22:36.451Z,39.62
2023-05-19T15:25:06.886Z,39.87
2023-05-19T15:27:36.311Z,40.04
2023-05-19T15:30:04.540Z,40.39
2023-05-19T15:32:32.545Z,40.04
2023-05-19T15:35:00.483Z,40.06
2023-05-19T15:37:28.426Z,40.25
2023-05-19T15:39:57.748Z,39.58
2023-05-19T15:42:26.080Z,39.63
2023-05-19T15:44:54.024Z,39.58
2023-05-19T15:47:22.028Z,39.57
2023-05-19T15:49:50.047Z,39.60
2023-05-19T15:52:17.993Z,39.53
2023-05-19T15:54:46.668Z,39.40
2023-05-19T15:57:16.003Z,39.51
2023-05-19T15:59:43.940Z,39.42
2023-05-19T16:02:12.514Z,39.35
2023-05-19T16:04:40.482Z,39.50
2023-05-19T16:07:08.472Z,39.53
2023-05-19T16:09:36.454Z,39.85
2023-05-19T16:12:04.713Z,39.90
2023-05-19T16:14:36.649Z,39.94
2023-05-19T16:17:04.759Z,40.25
2023-05-19T16:19:32.804Z,40.24
2023-05-19T16:22:03.553Z,40.30
2023-05-19T16:24:31.518Z,40.55
2023-05-19T16:26:59.506Z,40.61
2023-05-19T16:29:27.495Z,40.58
2023-05-19T16:31:56.940Z,40.75
2023-05-19T16:34:25.068Z,40.64
2023-05-19T16:36:53.001Z,40.58
2023-05-19T16:39:20.970Z,39.81
2023-05-19T16:41:48.929Z,41.18
2023-05-19T16:44:18.331Z,40.71
2023-05-19T16:46:46.332Z,40.54
2023-05-19T16:49:18.127Z,40.80
2023-05-19T16:51:47.526Z,40.63
2023-05-19T16:54:16.864Z,40.77
2023-05-19T16:56:44.836Z,40.75
2023-05-19T16:59:12.879Z,40.79
2023-05-19T17:01:40.974Z,40.82
2023-05-19T17:04:09.217Z,40.84
2023-05-19T17:06:38.699Z,40.92
2023-05-19T17:09:06.622Z,40.86
2023-05-19T17:11:34.755Z,41.06
2023-05-19T17:14:07.580Z,41.00
2023-05-19T17:16:38.647Z,40.74
2023-05-19T17:19:06.749Z,40.94
2023-05-19T17:21:34.785Z,41.02
2023-05-19T17:24:04.142Z,40.95
2023-05-19T17:26:32.125Z,40.98
2023-05-19T17:29:00.138Z,40.70
2023-05-19T17:31:28.229Z,41.08
2023-05-19T17:33:59.158Z,41.04
2023-05-19T17:36:27.247Z,40.93
2023-05-19T17:38:55.383Z,40.85
2023-05-19T17:41:24.799Z,41.01
2023-05-19T17:43:52.852Z,41.00
2023-05-19T17:46:20.920Z,41.12
2023-05-19T17:48:48.917Z,41.08
2023-05-19T17:51:17.002Z,41.18
2023-05-19T17:53:45.629Z,41.19
2023-05-19T17:56:14.183Z,41.04
2023-05-19T17:58:46.632Z,41.11
2023-05-19T18:01:15.010Z,41.15
2023-05-19T18:03:49.677Z,41.19
2023-05-19T18:06:18.295Z,41.16
2023-05-19T18:08:47.185Z,41.30
2023-05-19T18:11:16.145Z,41.20
2023-05-19T18:13:45.613Z,41.16
2023-05-19T18:16:13.958Z,41.24
2023-05-19T18:18:43.753Z,41.30
2023-05-19T18:21:17.700Z,41.17
2023-05-19T18:23:45.996Z,41.47
2023-05-19T18:26:14.392Z,41.32
2023-05-19T18:28:43.453Z,41.23
2023-05-19T18:31:19.463Z,41.44
2023-05-19T18:33:48.096Z,41.60
2023-05-19T18:36:16.664Z,41.58
2023-05-19T18:38:44.770Z,41.47
2023-05-19T18:41:12.837Z,41.44
2023-05-19T18:43:40.830Z,41.38
2023-05-19T18:46:08.922Z,41.34
2023-05-19T18:48:38.287Z,41.56
2023-05-19T18:51:07.297Z,41.43
2023-05-19T18:53:35.695Z,41.82
2023-05-19T18:56:04.334Z,41.61
2023-05-19T18:58:32.669Z,41.55
2023-05-19T19:01:00.749Z,41.62
2023-05-19T19:03:29.074Z,41.45
2023-05-19T19:05:59.679Z,41.51
2023-05-19T19:08:27.807Z,41.44
2023-05-19T19:11:00.219Z,41.31
2023-05-19T19:13:28.429Z,41.55
2023-05-19T19:15:56.473Z,41.51
2023-05-19T19:18:26.076Z,41.54
2023-05-19T19:20:59.638Z,41.53
2023-05-19T19:23:27.652Z,41.23
2023-05-19T19:25:56.486Z,41.50
2023-05-19T19:28:24.699Z,41.55
2023-05-19T19:30:52.683Z,41.50
2023-05-19T19:33:20.830Z,41.50
2023-05-19T19:35:51.969Z,41.53
2023-05-19T19:38:21.440Z,41.47
2023-05-19T19:40:52.505Z,41.66
2023-05-19T19:43:20.717Z,41.52
2023-05-19T19:45:48.721Z,41.49
2023-05-19T19:48:16.857Z,41.51
2023-05-19T19:50:44.890Z,41.56
2023-05-19T19:53:15.564Z,41.38
2023-05-19T19:55:44.999Z,41.55
2023-05-19T19:58:13.137Z,41.39
2023-05-19T20:00:41.146Z,41.54
2023-05-19T20:03:09.129Z,41.40
2023-05-19T20:05:39.458Z,41.40
2023-05-19T20:08:07.770Z,41.45
2023-05-19T20:10:36.009Z,41.47
2023-05-19T20:13:05.536Z,41.49
2023-05-19T20:15:33.533Z,41.42
2023-05-19T20:18:01.645Z,41.53
2023-05-19T20:20:29.834Z,41.58
2023-05-19T20:22:57.759Z,41.57
2023-05-19T20:25:28.513Z,41.40
2023-05-19T20:27:56.501Z,41.52
2023-05-19T20:30:26.147Z,41.42
2023-05-19T20:32:54.191Z,41.67
2023-05-19T20:35:24.783Z,41.42
2023-05-19T20:37:55.690Z,41.41
2023-05-19T20:40:23.654Z,41.62
2023-05-19T20:42:51.920Z,41.50
2023-05-19T20:45:19.972Z,41.42
2023-05-19T20:47:49.368Z,41.42
2023-05-19T20:50:17.475Z,41.28
2023-05-19T20:52:47.213Z,41.16
2023-05-19T20:55:15.194Z,41.17
2023-05-19T20:57:45.648Z,41.16
2023-05-19T21:00:14.357Z,41.36
2023-05-19T21:02:42.303Z,40.98
2023-05-19T21:05:11.948Z,41.06
2023-05-19T21:07:40.128Z,41.11
2023-05-19T21:10:09.508Z,41.16
2023-05-19T21:12:37.499Z,41.24
2023-05-19T21:15:06.078Z,41.04
2023-05-19T21:17:34.173Z,41.26
2023-05-19T21:20:02.272Z,41.14
2023-05-19T21:22:31.749Z,41.19
2023-05-19T21:24:59.791Z,41.12
2023-05-19T21:27:27.734Z,41.22
2023-05-19T21:29:55.753Z,40.96
2023-05-19T21:32:23.800Z,41.25
2023-05-19T21:34:51.743Z,41.08
2023-05-19T21:37:21.152Z,41.14
2023-05-19T21:39:50.562Z,41.12
2023-05-19T21:42:18.659Z,41.14
2023-05-19T21:44:46.671Z,40.98
2023-05-19T21:47:14.666Z,41.07
2023-05-19T21:49:42.846Z,41.03
2023-05-19T21:52:11.226Z,41.02
2023-05-19T21:54:42.126Z,41.04
2023-05-19T21:57:12.650Z,41.04
2023-05-19T21:59:40.868Z,41.21
2023-05-19T22:02:08.939Z,40.98
2023-05-19T22:04:37.112Z,40.93
2023-05-19T22:07:06.516Z,41.09
2023-05-19T22:09:34.457Z,41.22
2023-05-19T22:12:02.633Z,41.05
2023-05-19T22:14:32.011Z,41.35
2023-05-19T22:16:59.994Z,41.14
2023-05-19T22:19:28.010Z,41.14
2023-05-19T22:22:09.768Z,41.06
2023-05-19T22:24:41.033Z,41.11
2023-05-19T22:27:09.425Z,41.20
2023-05-19T22:29:39.436Z,41.14
2023-05-19T22:32:11.754Z,41.00
2023-05-19T22:34:39.865Z,40.95
2023-05-19T22:37:07.914Z,41.15
2023-05-19T22:39:35.834Z,41.16
2023-05-19T22:42:03.937Z,41.02
2023-05-19T22:44:31.908Z,41.15
2023-05-19T22:47:01.375Z,41.10
2023-05-19T22:49:31.914Z,41.27
2023-05-19T22:52:00.036Z,41.36
2023-05-19T22:54:28.034Z,40.97
2023-05-19T22:56:55.988Z,41.13
2023-05-19T22:59:23.964Z,41.14
2023-05-19T23:01:52.168Z,41.10
2023-05-19T23:04:21.812Z,41.16
2023-05-19T23:06:50.321Z,41.13
2023-05-19T23:09:18.371Z,41.29
2023-05-19T23:11:46.587Z,41.23
2023-05-19T23:14:18.514Z,41.29
2023-05-19T23:16:46.693Z,41.17
2023-05-19T23:19:14.853Z,41.37
2023-05-19T23:21:45.928Z,41.28
2023-05-19T23:24:13.933Z,41.24
2023-05-19T23:26:43.872Z,41.24
2023-05-19T23:29:12.914Z,41.33
2023-05-19T23:31:41.246Z,41.09
2023-05-19T23:34:09.499Z,41.29
2023-05-19T23:36:37.580Z,41.31
2023-05-19T23:39:06.965Z,41.17
2023-05-19T23:41:34.991Z,41.38
2023-05-19T23:44:02.990Z,41.54
2023-05-19T23:46:31.723Z,41.46
2023-05-19T23:48:59.800Z,41.29
2023-05-19T23:51:27.868Z,41.24
2023-05-19T23:53:55.810Z,41.38
2023-05-19T23:56:25.138Z,41.39
2023-05-19T23:58:53.122Z,41.59
